Terminal Aerodrome Forecast
Issued by NWS Bismarck, ND

Home | Current Version | Previous Version | Text Only | Print | Product List | Glossary On
Versions: 1 2 3 4 5 6 7 8 9 10 11 12
000
FTUS43 KBIS 300526
TAFISN
TAF
KISN 300526Z 3006/0106 18005KT P6SM FEW250
     FM301800 19014KT P6SM FEW250
     FM010000 16009KT P6SM BKN090 BKN110=

USA.gov is the U.S. government's official web portal to all federal, state and local government web resources and services.